Pagrindinis puslapis
METAR-TAF:

METAR-TAF

Oro uostai :

Monbetsu, Japonija

platuma: 44-15N, ilguma: 143-32E, Aukštis: 6 m

Dabartinis oras

Ataskaita buvo paskelbta 27 minutes, ne 02:00 UTC
Vėjas 6 kt iš Rytų/Šiaurės Rytų, svyruoja nuo Šiaurės/Šiaurės Rytų ir Rytų
Temperatūra 19°C
Drėgmė 88%
Slėgis 1009 hPa
Matomumas 10 km arba daugiau
Mažai debesys ne aukštis 2000 ft
Su prošvaistėmis ne aukštis 4500 ft

METAR: RJEB 090200Z 07006KT 020V100 9999 FEW020 BKN045 19/17 Q1009

Laikas: 11:27 (02:27 UTC)


TAF: trūkstamas

Orai ataskaitas ir orų prognozės (METAR, TAF).

turimą stotys yra geltonos ir raudonos taškus žemėlapyje.

Perkelti pele per norėdami pamatyti stoties vardą.

Tada spustelėkite, norėdami matyti oro stebėjimo ir prognozės.

Norėdami pakeisti žemėlapį: spustelėkite ant žalios mygtukų su juodo kryžiaus žemyn,; žalią mygtuką su brūkšneliu, jei norite nutolinti; arba žalių rodyklių gretimoms žemėlapius.


METAR-TAF: